You are listening to:
SBPA Gnd/Twr/App/Center - Porto Alegre, Brazil

SBPA 260700Z 33004KT 9000 SCT013 FEW040TCU BKN100 22/22 Q1009 RETS

If stream doesn't start automatically press the play button
If stream stops then reload player then press play